createdAt,value
2019-01-12T00:00:25.360Z,14.87
2019-01-12T00:02:56.548Z,17.17
2019-01-12T00:05:27.626Z,11.73
2019-01-12T00:07:58.653Z,14.60
2019-01-12T00:10:28.672Z,13.90
2019-01-12T00:12:59.692Z,11.18
2019-01-12T00:15:30.817Z,15.35
2019-01-12T00:18:01.866Z,16.52
2019-01-12T00:20:31.730Z,17.52
2019-01-12T00:23:02.845Z,11.63
2019-01-12T00:25:33.804Z,12.80
2019-01-12T00:28:04.854Z,14.75
2019-01-12T00:30:36.528Z,16.20
2019-01-12T00:33:07.533Z,10.40
2019-01-12T00:35:38.599Z,12.85
2019-01-12T00:38:09.653Z,9.93
2019-01-12T00:40:41.393Z,12.58
2019-01-12T00:43:12.525Z,10.82
2019-01-12T00:45:43.554Z,8.30
2019-01-12T00:48:14.572Z,10.18
2019-01-12T00:50:45.673Z,7.03
2019-01-12T00:53:16.715Z,10.32
2019-01-12T00:55:46.085Z,13.95
2019-01-12T00:58:17.733Z,9.15
2019-01-12T01:00:48.850Z,12.95
2019-01-12T01:03:19.506Z,13.25
2019-01-12T01:05:49.375Z,6.90
2019-01-12T01:08:20.455Z,9.78
2019-01-12T01:10:51.561Z,7.17
2019-01-12T01:13:22.532Z,11.15
2019-01-12T01:15:53.650Z,8.23
2019-01-12T01:18:24.801Z,5.08
2019-01-12T01:20:55.815Z,13.65
2019-01-12T01:23:26.869Z,4.50
2019-01-12T01:25:57.966Z,4.30
2019-01-12T01:28:29.092Z,9.38
2019-01-12T01:31:00.210Z,9.53
2019-01-12T01:33:31.245Z,8.48
2019-01-12T01:36:01.829Z,13.03
2019-01-12T01:38:35.173Z,7.62
2019-01-12T01:41:06.181Z,10.20
2019-01-12T01:43:37.166Z,9.35
2019-01-12T01:46:08.766Z,5.15
2019-01-12T01:48:39.808Z,10.80
2019-01-12T01:51:10.765Z,6.42
2019-01-12T01:53:41.805Z,12.55
2019-01-12T01:56:12.832Z,12.13
2019-01-12T01:58:43.885Z,13.38
2019-01-12T02:01:13.717Z,7.83
2019-01-12T02:03:45.328Z,9.95
2019-01-12T02:06:16.817Z,6.72
2019-01-12T02:08:47.846Z,9.65
2019-01-12T02:11:18.845Z,7.80
2019-01-12T02:13:49.889Z,6.60
2019-01-12T02:16:20.837Z,8.08
2019-01-12T02:18:51.838Z,7.45
2019-01-12T02:21:22.880Z,9.90
2019-01-12T02:23:53.917Z,10.08
2019-01-12T02:26:24.938Z,9.75
2019-01-12T02:28:54.858Z,8.80
2019-01-12T02:31:24.821Z,5.12
2019-01-12T02:33:54.725Z,6.78
2019-01-12T02:36:25.764Z,5.47
2019-01-12T02:38:57.406Z,8.05
2019-01-12T02:41:28.360Z,4.40
2019-01-12T02:43:59.406Z,4.55
2019-01-12T02:46:31.238Z,6.10
2019-01-12T02:49:02.280Z,4.75
2019-01-12T02:51:33.290Z,5.17
2019-01-12T02:54:04.325Z,6.30
2019-01-12T02:56:35.365Z,6.33
2019-01-12T02:59:05.239Z,4.78
2019-01-12T03:01:36.753Z,5.78
2019-01-12T03:04:07.810Z,3.47
2019-01-12T03:06:38.848Z,5.83
2019-01-12T03:09:10.080Z,6.12
2019-01-12T03:11:41.087Z,3.30
2019-01-12T03:14:12.825Z,3.90
2019-01-12T03:16:44.490Z,4.83
2019-01-12T03:19:15.486Z,3.65
2019-01-12T03:21:46.465Z,4.90
2019-01-12T03:24:17.477Z,3.50
2019-01-12T03:26:48.527Z,3.42
2019-01-12T03:29:20.199Z,3.00
2019-01-12T03:31:49.999Z,3.12
2019-01-12T03:34:21.237Z,4.72
2019-01-12T03:36:52.249Z,2.75
2019-01-12T03:39:23.399Z,2.60
2019-01-12T03:41:54.437Z,2.67
2019-01-12T03:44:24.299Z,2.62
2019-01-12T03:46:54.213Z,2.70
2019-01-12T03:49:25.212Z,6.00
2019-01-12T03:51:56.300Z,3.17
2019-01-12T03:54:27.234Z,3.67
2019-01-12T03:56:58.288Z,2.20
2019-01-12T03:59:30.768Z,1.77
2019-01-12T04:02:04.204Z,3.60
2019-01-12T04:04:35.247Z,2.47
2019-01-12T04:07:06.166Z,3.25
2019-01-12T04:09:37.077Z,3.50
2019-01-12T04:12:10.445Z,3.80
2019-01-12T04:14:40.302Z,3.00
2019-01-12T04:17:10.878Z,4.00
2019-01-12T04:19:42.052Z,1.15
2019-01-12T04:22:13.061Z,3.83
2019-01-12T04:24:44.126Z,2.40
2019-01-12T04:27:15.078Z,2.47
2019-01-12T04:29:45.017Z,1.62
2019-01-12T04:32:16.034Z,4.30
2019-01-12T04:34:47.051Z,4.17
2019-01-12T04:37:17.087Z,1.80
2019-01-12T04:39:48.045Z,3.52
2019-01-12T04:42:19.084Z,1.87
2019-01-12T04:44:49.033Z,4.65
2019-01-12T04:47:20.127Z,5.78
2019-01-12T04:49:50.057Z,3.02
2019-01-12T04:52:21.038Z,3.60
2019-01-12T04:54:52.084Z,4.30
2019-01-12T04:57:23.092Z,5.42
2019-01-12T04:59:54.797Z,2.72
2019-01-12T05:02:25.818Z,5.30
2019-01-12T05:04:55.135Z,5.15
2019-01-12T05:07:25.074Z,4.72
2019-01-12T05:09:56.685Z,4.78
2019-01-12T05:12:27.721Z,4.35
2019-01-12T05:14:58.725Z,5.20
2019-01-12T05:17:29.849Z,4.22
2019-01-12T05:20:00.834Z,6.28
2019-01-12T05:22:31.839Z,4.53
2019-01-12T05:25:01.717Z,6.85
2019-01-12T05:27:32.720Z,4.12
2019-01-12T05:30:02.695Z,4.72
2019-01-12T05:32:33.769Z,4.75
2019-01-12T05:35:04.845Z,6.00
2019-01-12T05:37:35.826Z,5.47
2019-01-12T05:40:09.248Z,5.55
2019-01-12T05:42:46.986Z,5.03
2019-01-12T05:45:17.952Z,4.35
2019-01-12T05:47:48.993Z,4.50
2019-01-12T05:50:20.004Z,5.45
2019-01-12T05:52:51.041Z,5.12
2019-01-12T05:55:22.043Z,4.83
2019-01-12T05:57:53.033Z,4.22
2019-01-12T06:00:24.360Z,5.35
2019-01-12T06:02:55.392Z,2.37
2019-01-12T06:05:25.259Z,5.50
2019-01-12T06:07:56.344Z,6.10
2019-01-12T06:10:27.325Z,2.65
2019-01-12T06:12:57.237Z,2.15
2019-01-12T06:15:28.273Z,3.47
2019-01-12T06:17:59.281Z,6.05
2019-01-12T06:20:30.286Z,3.55
2019-01-12T06:22:59.694Z,2.67
2019-01-12T06:25:30.592Z,3.00
2019-01-12T06:28:01.621Z,1.80
2019-01-12T06:30:32.653Z,2.33
2019-01-12T06:33:03.690Z,5.80
2019-01-12T06:35:33.713Z,6.75
2019-01-12T06:38:03.701Z,2.27
2019-01-12T06:40:34.712Z,4.47
2019-01-12T06:43:05.727Z,3.65
2019-01-12T06:45:36.846Z,2.55
2019-01-12T06:48:07.992Z,4.12
2019-01-12T06:50:37.950Z,3.00
2019-01-12T06:53:08.917Z,4.15
2019-01-12T06:55:39.887Z,4.37
2019-01-12T06:58:11.671Z,3.37
2019-01-12T07:00:42.768Z,5.47
2019-01-12T07:03:15.264Z,2.98
2019-01-12T07:05:46.261Z,3.42
2019-01-12T07:08:17.325Z,2.85
2019-01-12T07:10:46.617Z,6.40
2019-01-12T07:13:17.570Z,5.10
2019-01-12T07:15:48.682Z,3.22
2019-01-12T07:18:22.015Z,3.15
2019-01-12T07:20:52.998Z,6.55
2019-01-12T07:23:22.926Z,4.00
2019-01-12T07:25:53.989Z,4.75
2019-01-12T07:28:24.997Z,4.45
2019-01-12T07:30:56.014Z,3.67
2019-01-12T07:33:25.893Z,3.75
2019-01-12T07:35:56.357Z,4.90
2019-01-12T07:38:27.370Z,4.33
2019-01-12T07:40:58.361Z,4.10
2019-01-12T07:43:29.365Z,4.33
2019-01-12T07:46:01.045Z,2.58
2019-01-12T07:48:32.044Z,3.15
2019-01-12T07:51:03.049Z,5.30
2019-01-12T07:53:34.086Z,4.05
2019-01-12T07:56:05.165Z,4.78
2019-01-12T07:58:36.767Z,6.12
2019-01-12T08:01:07.765Z,4.17
2019-01-12T08:03:37.674Z,3.25
2019-01-12T08:06:08.673Z,4.12
2019-01-12T08:08:39.718Z,4.15
2019-01-12T08:11:09.665Z,5.92
2019-01-12T08:13:40.680Z,3.58
2019-01-12T08:16:10.523Z,5.00
2019-01-12T08:18:41.514Z,6.53
2019-01-12T08:21:12.517Z,7.28
2019-01-12T08:23:44.157Z,5.65
2019-01-12T08:26:15.205Z,3.90
2019-01-12T08:28:46.276Z,5.70
2019-01-12T08:31:17.414Z,3.95
2019-01-12T08:33:48.534Z,3.05
2019-01-12T08:36:19.610Z,4.72
2019-01-12T08:38:49.586Z,2.90
2019-01-12T08:41:20.609Z,10.68
2019-01-12T08:43:51.692Z,10.00
2019-01-12T08:46:21.639Z,14.70
2019-01-12T08:48:52.687Z,9.95
2019-01-12T08:51:23.725Z,6.28
2019-01-12T08:53:54.725Z,5.35
2019-01-12T08:56:25.737Z,4.40
2019-01-12T08:58:56.805Z,4.85
2019-01-12T09:01:27.770Z,1.12
2019-01-12T09:03:58.878Z,6.12
2019-01-12T09:06:29.969Z,5.97
2019-01-12T09:08:59.952Z,5.90
2019-01-12T09:11:31.090Z,6.53
2019-01-12T09:14:02.149Z,6.37
2019-01-12T09:16:33.165Z,4.65
2019-01-12T09:19:04.137Z,5.12
2019-01-12T09:21:35.202Z,2.80
2019-01-12T09:24:06.277Z,3.65
2019-01-12T09:26:36.236Z,3.42
2019-01-12T09:29:07.966Z,5.40
2019-01-12T09:31:39.078Z,5.37
2019-01-12T09:34:10.099Z,5.37
2019-01-12T09:36:40.117Z,6.67
2019-01-12T09:39:13.597Z,2.83
2019-01-12T09:41:44.657Z,6.20
2019-01-12T09:44:14.717Z,5.50
2019-01-12T09:46:44.036Z,3.72
2019-01-12T09:49:15.053Z,5.72
2019-01-12T09:51:48.527Z,3.95
2019-01-12T09:54:19.558Z,5.37
2019-01-12T09:56:51.919Z,3.80
2019-01-12T09:59:22.134Z,1.80
2019-01-12T10:01:53.277Z,3.60
2019-01-12T10:04:23.134Z,3.08
2019-01-12T10:06:54.126Z,3.42
2019-01-12T10:09:24.086Z,4.62
2019-01-12T10:11:55.213Z,2.83
2019-01-12T10:14:26.410Z,3.35
2019-01-12T10:16:59.722Z,2.55
2019-01-12T10:19:30.805Z,4.55
2019-01-12T10:22:02.126Z,4.97
2019-01-12T10:24:33.195Z,1.62
2019-01-12T10:27:04.211Z,3.67
2019-01-12T10:29:35.326Z,2.12
2019-01-12T10:32:06.382Z,2.58
2019-01-12T10:34:37.637Z,2.98
2019-01-12T10:37:08.785Z,3.67
2019-01-12T10:39:39.762Z,4.30
2019-01-12T10:42:10.838Z,3.10
2019-01-12T10:44:41.898Z,3.12
2019-01-12T10:47:11.844Z,4.70
2019-01-12T10:49:42.964Z,3.40
2019-01-12T10:52:13.958Z,4.37
2019-01-12T10:54:45.086Z,3.00
2019-01-12T10:57:16.137Z,3.60
2019-01-12T10:59:47.205Z,4.12
2019-01-12T11:02:18.350Z,3.72
2019-01-12T11:04:49.437Z,2.33
2019-01-12T11:07:19.751Z,5.12
2019-01-12T11:09:49.811Z,3.17
2019-01-12T11:12:20.846Z,3.22
2019-01-12T11:14:52.006Z,4.87
2019-01-12T11:17:23.077Z,6.30
2019-01-12T11:19:54.089Z,5.28
2019-01-12T11:22:25.088Z,2.35
2019-01-12T11:24:57.768Z,2.95
2019-01-12T11:27:28.956Z,2.92
2019-01-12T11:30:00.205Z,3.15
2019-01-12T11:32:30.185Z,3.45
2019-01-12T11:35:01.279Z,4.72
2019-01-12T11:37:31.174Z,1.35
2019-01-12T11:40:02.939Z,2.40
2019-01-12T11:42:32.310Z,5.85
2019-01-12T11:45:03.326Z,3.55
2019-01-12T11:47:34.337Z,2.35
2019-01-12T11:50:05.398Z,3.25
2019-01-12T11:52:36.442Z,4.42
2019-01-12T11:55:09.645Z,4.17
2019-01-12T11:57:40.689Z,2.17
2019-01-12T12:00:14.837Z,1.75
2019-01-12T12:02:45.950Z,2.75
2019-01-12T12:05:17.339Z,3.72
2019-01-12T12:07:48.520Z,4.50
2019-01-12T12:10:22.407Z,3.15
2019-01-12T12:12:53.494Z,2.62
2019-01-12T12:15:25.117Z,3.87
2019-01-12T12:17:56.146Z,3.92
2019-01-12T12:20:28.286Z,2.40
2019-01-12T12:22:59.357Z,4.17
2019-01-12T12:25:30.434Z,3.42
2019-01-12T12:28:00.342Z,2.77
2019-01-12T12:30:31.653Z,3.17
2019-01-12T12:33:02.718Z,1.52
2019-01-12T12:35:37.713Z,6.00
2019-01-12T12:38:04.621Z,2.05
2019-01-12T12:40:34.677Z,4.53
2019-01-12T12:43:05.707Z,2.42
2019-01-12T12:45:37.379Z,1.87
2019-01-12T12:48:08.485Z,3.33
2019-01-12T12:50:39.486Z,3.30
2019-01-12T12:53:10.558Z,4.33
2019-01-12T12:55:41.637Z,5.60
2019-01-12T12:58:12.712Z,4.40
2019-01-12T13:00:43.237Z,6.58
2019-01-12T13:03:13.193Z,3.62
2019-01-12T13:05:46.798Z,4.28
2019-01-12T13:08:20.362Z,5.05
2019-01-12T13:10:52.014Z,3.92
2019-01-12T13:13:23.535Z,4.80
2019-01-12T13:15:54.849Z,4.25
2019-01-12T13:18:25.915Z,2.95
2019-01-12T13:20:56.962Z,4.95
2019-01-12T13:23:27.995Z,5.65
2019-01-12T13:25:59.076Z,5.95
2019-01-12T13:28:29.014Z,4.90
2019-01-12T13:31:00.036Z,5.15
2019-01-12T13:33:29.945Z,3.27
2019-01-12T13:36:01.040Z,4.87
2019-01-12T13:38:31.026Z,6.90
2019-01-12T13:41:02.038Z,5.25
2019-01-12T13:43:31.874Z,7.33
2019-01-12T13:46:02.897Z,8.20
2019-01-12T13:48:32.941Z,5.78
2019-01-12T13:51:02.902Z,4.10
2019-01-12T13:53:34.040Z,4.42
2019-01-12T13:56:05.057Z,5.65
2019-01-12T13:58:36.205Z,4.28
2019-01-12T14:01:07.241Z,4.60
2019-01-12T14:03:37.185Z,8.00
2019-01-12T14:06:08.156Z,4.17
2019-01-12T14:08:39.248Z,4.70
2019-01-12T14:11:10.346Z,5.15
2019-01-12T14:13:42.425Z,7.45
2019-01-12T14:16:12.410Z,6.87
2019-01-12T14:18:42.433Z,7.58
2019-01-12T14:21:13.530Z,7.35
2019-01-12T14:23:44.677Z,5.50
2019-01-12T14:26:15.734Z,5.75
2019-01-12T14:28:46.853Z,6.55
2019-01-12T14:31:17.902Z,6.62
2019-01-12T14:33:48.929Z,8.70
2019-01-12T14:36:20.110Z,8.03
2019-01-12T14:38:50.433Z,6.65
2019-01-12T14:41:21.629Z,8.58
2019-01-12T14:43:51.711Z,8.35
2019-01-12T14:46:22.799Z,8.60
2019-01-12T14:48:54.200Z,10.05
2019-01-12T14:51:25.034Z,10.88
2019-01-12T14:53:56.111Z,13.88
2019-01-12T14:56:34.131Z,9.58
2019-01-12T14:59:04.367Z,7.72
2019-01-12T15:01:36.270Z,12.93
2019-01-12T15:04:07.402Z,12.73
2019-01-12T15:06:37.483Z,11.20
2019-01-12T15:09:08.710Z,13.30
2019-01-12T15:11:39.919Z,13.28
2019-01-12T15:14:11.759Z,17.50
2019-01-12T15:16:44.279Z,17.07
2019-01-12T15:19:15.591Z,15.45
2019-01-12T15:21:46.869Z,13.40
2019-01-12T15:24:18.124Z,8.75
2019-01-12T15:26:48.309Z,13.00
2019-01-12T15:29:19.476Z,12.03
2019-01-12T15:31:50.792Z,14.75
2019-01-12T15:34:21.989Z,12.93
2019-01-12T15:36:53.140Z,16.10
2019-01-12T15:39:24.357Z,12.45
2019-01-12T15:41:55.476Z,10.53
2019-01-12T15:44:27.270Z,11.25
2019-01-12T15:46:57.400Z,10.18
2019-01-12T15:49:28.757Z,14.40
2019-01-12T15:52:00.030Z,14.98
2019-01-12T15:54:31.237Z,16.07
2019-01-12T15:57:00.709Z,8.35
2019-01-12T15:59:32.362Z,9.10
2019-01-12T16:02:03.827Z,13.48
2019-01-12T16:04:34.589Z,16.97
2019-01-12T16:07:04.590Z,16.62
2019-01-12T16:09:37.167Z,11.85
2019-01-12T16:12:07.190Z,19.10
2019-01-12T16:14:38.349Z,13.10
2019-01-12T16:17:09.670Z,17.00
2019-01-12T16:19:40.870Z,17.15
2019-01-12T16:22:12.276Z,11.15
2019-01-12T16:24:42.549Z,13.90
2019-01-12T16:27:13.950Z,12.25
2019-01-12T16:29:45.354Z,10.95
2019-01-12T16:32:16.750Z,7.95
2019-01-12T16:34:48.079Z,10.20
2019-01-12T16:37:18.230Z,15.78
2019-01-12T16:39:49.600Z,16.27
2019-01-12T16:42:21.078Z,16.85
2019-01-12T16:44:51.710Z,19.77
2019-01-12T16:47:23.070Z,7.05
2019-01-12T16:49:54.312Z,12.50
2019-01-12T16:52:24.310Z,15.38
2019-01-12T16:54:55.397Z,15.03
2019-01-12T16:57:25.557Z,16.87
2019-01-12T16:59:57.775Z,14.75
2019-01-12T17:02:29.236Z,8.40
2019-01-12T17:05:02.139Z,10.80
2019-01-12T17:07:32.469Z,12.50
2019-01-12T17:10:03.720Z,8.55
2019-01-12T17:12:33.992Z,8.63
2019-01-12T17:15:05.472Z,7.28
2019-01-12T17:17:35.550Z,12.25
2019-01-12T17:20:10.836Z,20.50
2019-01-12T17:22:41.030Z,11.97
2019-01-12T17:25:12.309Z,18.10
2019-01-12T17:27:47.638Z,22.93
2019-01-12T17:30:21.119Z,15.60
2019-01-12T17:32:51.509Z,16.02
2019-01-12T17:35:22.351Z,12.35
2019-01-12T17:37:53.150Z,9.33
2019-01-12T17:40:26.552Z,7.70
2019-01-12T17:42:56.910Z,13.65
2019-01-12T17:45:27.189Z,14.78
2019-01-12T17:47:58.631Z,13.68
2019-01-12T17:50:30.019Z,10.13
2019-01-12T17:53:02.674Z,24.20
2019-01-12T17:55:34.205Z,10.88
2019-01-12T17:58:05.839Z,7.10
2019-01-12T18:00:40.596Z,13.20
2019-01-12T18:03:12.121Z,8.88
2019-01-12T18:05:44.389Z,6.00
2019-01-12T18:08:17.252Z,8.80
2019-01-12T18:10:48.749Z,4.75
2019-01-12T18:13:20.069Z,5.97
2019-01-12T18:15:51.963Z,7.60
2019-01-12T18:18:23.202Z,10.18
2019-01-12T18:20:54.509Z,17.95
2019-01-12T18:23:26.398Z,15.45
2019-01-12T18:25:57.951Z,15.18
2019-01-12T18:28:28.197Z,16.42
2019-01-12T18:31:01.950Z,16.40
2019-01-12T18:33:33.236Z,12.10
2019-01-12T18:36:04.592Z,12.70
2019-01-12T18:38:35.910Z,11.55
2019-01-12T18:41:06.061Z,11.70
2019-01-12T18:43:37.346Z,12.65
2019-01-12T18:46:12.121Z,8.90
2019-01-12T18:48:41.072Z,12.85
2019-01-12T18:51:12.353Z,9.98
2019-01-12T18:53:43.537Z,10.40
2019-01-12T18:56:13.623Z,15.70
2019-01-12T18:58:44.836Z,10.65
2019-01-12T19:01:16.678Z,13.00
2019-01-12T19:03:47.888Z,11.83
2019-01-12T19:06:18.034Z,13.78
2019-01-12T19:08:49.229Z,9.10
2019-01-12T19:11:19.145Z,11.93
2019-01-12T19:13:50.884Z,11.97
2019-01-12T19:16:22.141Z,16.75
2019-01-12T19:18:54.635Z,12.03
2019-01-12T19:21:25.876Z,13.48
2019-01-12T19:23:57.014Z,18.07
2019-01-12T19:26:26.429Z,18.98
2019-01-12T19:28:58.321Z,12.25
2019-01-12T19:31:29.495Z,12.10
2019-01-12T19:34:00.882Z,10.70
2019-01-12T19:36:32.741Z,9.88
2019-01-12T19:39:04.686Z,26.77
2019-01-12T19:41:34.781Z,8.73
2019-01-12T19:44:05.953Z,13.40
2019-01-12T19:46:38.256Z,12.88
2019-01-12T19:49:09.323Z,9.58
2019-01-12T19:51:40.353Z,11.93
2019-01-12T19:54:11.514Z,15.23
2019-01-12T19:56:41.601Z,9.55
2019-01-12T19:59:13.867Z,10.08
2019-01-12T20:01:45.141Z,6.97
2019-01-12T20:04:16.341Z,9.78
2019-01-12T20:06:47.394Z,11.57
2019-01-12T20:09:18.532Z,18.07
2019-01-12T20:12:54.575Z,8.08
2019-01-12T20:15:26.747Z,10.05
2019-01-12T20:17:56.813Z,9.40
2019-01-12T20:20:26.787Z,8.33
2019-01-12T20:22:56.993Z,10.85
2019-01-12T20:25:30.025Z,8.05
2019-01-12T20:28:01.242Z,8.25
2019-01-12T20:30:37.182Z,9.28
2019-01-12T20:33:26.580Z,9.80
2019-01-12T20:36:05.615Z,9.23
2019-01-12T20:38:45.563Z,10.65
2019-01-12T20:41:31.856Z,10.63
2019-01-12T20:44:18.161Z,19.25
2019-01-12T20:47:01.282Z,8.58
2019-01-12T20:49:35.517Z,6.33
2019-01-12T20:52:18.722Z,14.95
2019-01-12T20:54:58.972Z,11.05
2019-01-12T20:57:52.605Z,8.03
2019-01-12T21:00:48.284Z,13.25
2019-01-12T21:03:44.962Z,11.60
2019-01-12T21:06:43.081Z,8.70
2019-01-12T21:09:33.873Z,12.85
2019-01-12T21:12:30.433Z,8.33
2019-01-12T21:15:02.891Z,7.12
2019-01-12T21:17:32.942Z,6.78
2019-01-12T21:20:02.994Z,6.95
2019-01-12T21:22:32.394Z,6.00
2019-01-12T21:25:03.382Z,9.25
2019-01-12T21:27:33.306Z,7.40
2019-01-12T21:30:04.448Z,11.33
2019-01-12T21:35:37.338Z,8.25
2019-01-12T21:38:07.357Z,9.40
2019-01-12T21:40:38.453Z,6.35
2019-01-12T21:43:08.531Z,12.58
2019-01-12T21:45:40.399Z,7.33
2019-01-12T21:48:11.483Z,7.15
2019-01-12T21:50:41.500Z,11.85
2019-01-12T21:53:11.441Z,17.50
2019-01-12T21:55:43.171Z,6.62
2019-01-12T21:58:15.008Z,11.73
2019-01-12T22:00:46.042Z,10.13
2019-01-12T22:03:17.166Z,11.55
2019-01-12T22:05:47.261Z,12.33
2019-01-12T22:08:20.802Z,8.35
2019-01-12T22:10:50.749Z,11.20
2019-01-12T22:13:21.807Z,8.65
2019-01-12T22:15:52.852Z,11.12
2019-01-12T22:18:24.010Z,11.48
2019-01-12T22:20:54.010Z,15.43
2019-01-12T22:23:25.009Z,15.43
2019-01-12T22:25:56.141Z,14.28
2019-01-12T22:28:27.081Z,17.02
2019-01-12T22:30:58.091Z,13.60
2019-01-12T22:33:29.745Z,20.52
2019-01-12T22:35:59.761Z,21.45
2019-01-12T22:38:30.761Z,21.77
2019-01-12T22:41:01.802Z,11.15
2019-01-12T22:43:32.842Z,14.53
2019-01-12T22:46:03.882Z,15.30
2019-01-12T22:48:34.923Z,8.83
2019-01-12T22:51:05.962Z,23.02
2019-01-12T22:53:35.836Z,20.75
2019-01-12T22:56:05.214Z,7.58
2019-01-12T22:58:36.172Z,27.62
2019-01-12T23:01:16.970Z,12.75
2019-01-12T23:03:49.160Z,14.28
2019-01-12T23:06:20.219Z,19.73
2019-01-12T23:08:51.330Z,26.93
2019-01-12T23:11:22.457Z,20.32
2019-01-12T23:13:53.620Z,17.35
2019-01-12T23:16:25.329Z,6.95
2019-01-12T23:18:56.502Z,18.45
2019-01-12T23:21:26.342Z,20.45
2019-01-12T23:23:57.313Z,24.47
2019-01-12T23:26:27.221Z,30.82
2019-01-12T23:28:58.250Z,19.73
2019-01-12T23:31:28.282Z,29.00
2019-01-12T23:33:59.322Z,25.37
2019-01-12T23:36:30.329Z,11.93
2019-01-12T23:39:01.337Z,9.60
2019-01-12T23:41:32.450Z,19.27
2019-01-12T23:44:03.572Z,25.17
2019-01-12T23:46:35.197Z,19.73
2019-01-12T23:49:06.257Z,40.23
2019-01-12T23:51:37.361Z,46.80
2019-01-12T23:54:08.463Z,28.98
2019-01-12T23:56:38.409Z,39.65
2019-01-12T23:59:08.363Z,25.95
